createdAt,value
2024-03-01T00:01:13.059Z,8.70
2024-03-01T00:03:40.373Z,5.70
2024-03-01T00:06:07.589Z,5.50
2024-03-01T00:08:34.876Z,5.70
2024-03-01T00:11:06.946Z,4.60
2024-03-01T00:13:36.731Z,4.10
2024-03-01T00:16:04.169Z,5.90
2024-03-01T00:18:31.629Z,5.80
2024-03-01T00:20:59.344Z,7.20
2024-03-01T00:23:28.579Z,4.80
2024-03-01T00:25:57.780Z,4.10
2024-03-01T00:28:25.170Z,5.50
2024-03-01T00:30:54.307Z,4.70
2024-03-01T00:33:21.868Z,5.00
2024-03-01T00:35:49.252Z,8.00
2024-03-01T00:38:16.831Z,6.60
2024-03-01T00:40:44.306Z,6.50
2024-03-01T00:43:14.667Z,3.40
2024-03-01T00:45:42.103Z,4.30
2024-03-01T00:48:14.937Z,4.60
2024-03-01T00:50:45.114Z,3.70
2024-03-01T00:53:12.768Z,3.80
2024-03-01T00:55:40.602Z,2.40
2024-03-01T00:58:07.728Z,4.50
2024-03-01T01:00:35.448Z,4.00
2024-03-01T01:03:02.704Z,3.00
2024-03-01T01:05:29.737Z,4.20
2024-03-01T01:07:57.139Z,4.40
2024-03-01T01:10:24.165Z,3.70
2024-03-01T01:12:51.298Z,7.20
2024-03-01T01:15:18.755Z,3.90
2024-03-01T01:17:46.053Z,3.50
2024-03-01T01:20:13.485Z,4.50
2024-03-01T01:22:41.057Z,2.30
2024-03-01T01:25:08.534Z,4.50
2024-03-01T01:27:35.580Z,5.50
2024-03-01T01:30:02.909Z,5.20
2024-03-01T01:32:30.031Z,4.00
2024-03-01T01:34:57.124Z,3.10
2024-03-01T01:37:24.263Z,5.10
2024-03-01T01:39:51.639Z,3.80
2024-03-01T01:42:18.619Z,4.00
2024-03-01T01:44:47.222Z,5.50
2024-03-01T01:47:15.798Z,5.00
2024-03-01T01:49:43.042Z,3.00
2024-03-01T01:52:11.260Z,4.30
2024-03-01T01:54:38.783Z,4.40
2024-03-01T01:57:06.307Z,4.70
2024-03-01T01:59:33.566Z,4.90
2024-03-01T02:02:00.939Z,3.10
2024-03-01T02:04:30.109Z,4.80
2024-03-01T02:06:57.542Z,4.60
2024-03-01T02:09:24.751Z,4.50
2024-03-01T02:11:52.963Z,2.10
2024-03-01T02:14:20.202Z,3.70
2024-03-01T02:16:47.912Z,4.10
2024-03-01T02:19:19.241Z,3.70
2024-03-01T02:21:58.940Z,3.00
2024-03-01T02:24:26.087Z,2.40
2024-03-01T02:26:58.267Z,3.80
2024-03-01T02:29:27.750Z,4.50
2024-03-01T02:31:56.432Z,6.50
2024-03-01T02:34:23.468Z,3.40
2024-03-01T02:36:50.732Z,5.70
2024-03-01T02:39:20.383Z,4.40
2024-03-01T02:41:51.304Z,4.70
2024-03-01T02:44:22.747Z,6.20
2024-03-01T02:46:50.099Z,4.50
2024-03-01T02:49:17.309Z,4.80
2024-03-01T02:51:44.473Z,3.20
2024-03-01T02:54:11.783Z,3.70
2024-03-01T02:56:39.001Z,6.30
2024-03-01T02:59:06.037Z,4.60
2024-03-01T03:01:33.723Z,5.20
2024-03-01T03:04:01.004Z,4.60
2024-03-01T03:06:28.339Z,3.60
2024-03-01T03:08:56.096Z,5.60
2024-03-01T03:11:23.230Z,3.30
2024-03-01T03:13:50.284Z,2.50
2024-03-01T03:16:17.619Z,4.40
2024-03-01T03:18:44.682Z,3.50
2024-03-01T03:21:12.002Z,5.30
2024-03-01T03:23:39.452Z,4.20
2024-03-01T03:26:06.509Z,5.60
2024-03-01T03:28:33.751Z,3.30
2024-03-01T03:31:00.910Z,2.80
2024-03-01T03:33:28.562Z,4.10
2024-03-01T03:35:55.722Z,5.00
2024-03-01T03:38:22.717Z,5.20
2024-03-01T03:40:49.723Z,4.00
2024-03-01T03:43:16.849Z,4.30
2024-03-01T03:45:44.004Z,5.00
2024-03-01T03:48:11.235Z,4.90
2024-03-01T03:50:38.423Z,4.20
2024-03-01T03:53:05.725Z,3.80
2024-03-01T03:55:32.879Z,3.80
2024-03-01T03:58:00.091Z,3.30
2024-03-01T04:00:27.135Z,3.50
2024-03-01T04:02:54.308Z,4.50
2024-03-01T04:05:21.474Z,5.70
2024-03-01T04:07:49.056Z,4.40
2024-03-01T04:10:16.198Z,2.60
2024-03-01T04:12:43.739Z,4.40
2024-03-01T04:15:11.006Z,2.20
2024-03-01T04:17:38.033Z,6.00
2024-03-01T04:20:07.244Z,3.10
2024-03-01T04:22:34.454Z,5.00
2024-03-01T04:25:01.748Z,5.20
2024-03-01T04:27:28.778Z,5.10
2024-03-01T04:29:56.349Z,5.60
2024-03-01T04:32:23.349Z,3.40
2024-03-01T04:34:50.515Z,4.30
2024-03-01T04:37:17.930Z,3.00
2024-03-01T04:39:45.046Z,3.00
2024-03-01T04:42:12.593Z,2.50
2024-03-01T04:44:42.770Z,4.70
2024-03-01T04:47:09.895Z,7.00
2024-03-01T04:49:37.108Z,5.30
2024-03-01T04:52:04.971Z,4.80
2024-03-01T04:54:32.248Z,3.50
2024-03-01T04:56:59.241Z,2.10
2024-03-01T04:59:26.242Z,4.40
2024-03-01T05:01:53.347Z,3.80
2024-03-01T05:04:20.314Z,4.10
2024-03-01T05:06:47.244Z,3.50
2024-03-01T05:09:16.993Z,3.80
2024-03-01T05:11:45.847Z,3.10
2024-03-01T05:14:15.310Z,4.80
2024-03-01T05:16:42.264Z,3.90
2024-03-01T05:19:09.317Z,3.60
2024-03-01T05:21:37.427Z,3.90
2024-03-01T05:24:05.696Z,4.20
2024-03-01T05:26:33.855Z,2.40
2024-03-01T05:29:01.110Z,2.70
2024-03-01T05:31:44.505Z,3.40
2024-03-01T05:34:12.056Z,3.00
2024-03-01T05:36:38.986Z,4.40
2024-03-01T05:39:18.457Z,3.00
2024-03-01T05:41:46.868Z,6.20
2024-03-01T05:44:17.274Z,2.60
2024-03-01T05:46:44.986Z,4.90
2024-03-01T05:49:12.808Z,3.00
2024-03-01T05:51:40.721Z,4.30
2024-03-01T05:54:08.028Z,3.00
2024-03-01T05:56:35.233Z,4.10
2024-03-01T05:59:02.300Z,5.30
2024-03-01T06:01:29.608Z,5.70
2024-03-01T06:03:56.913Z,4.30
2024-03-01T06:06:24.239Z,6.60
2024-03-01T06:08:57.026Z,3.80
2024-03-01T06:11:25.178Z,4.80
2024-03-01T06:13:52.459Z,3.40
2024-03-01T06:16:19.960Z,4.10
2024-03-01T06:18:47.367Z,2.40
2024-03-01T06:21:22.251Z,2.90
2024-03-01T06:23:50.384Z,4.20
2024-03-01T06:26:17.640Z,3.40
2024-03-01T06:28:44.618Z,8.40
2024-03-01T06:31:12.011Z,4.60
2024-03-01T06:33:42.247Z,4.00
2024-03-01T06:36:09.693Z,4.90
2024-03-01T06:38:37.893Z,4.20
2024-03-01T06:41:06.563Z,5.80
2024-03-01T06:43:34.193Z,3.90
2024-03-01T06:46:05.002Z,8.00
2024-03-01T06:48:32.149Z,3.70
2024-03-01T06:51:00.699Z,4.90
2024-03-01T06:53:31.030Z,6.30
2024-03-01T06:55:58.715Z,5.40
2024-03-01T06:58:25.977Z,8.20
2024-03-01T07:00:53.316Z,6.50
2024-03-01T07:03:20.725Z,5.60
2024-03-01T07:05:48.265Z,1.90
2024-03-01T07:08:15.414Z,4.10
2024-03-01T07:10:44.182Z,9.10
2024-03-01T07:13:12.171Z,4.90
2024-03-01T07:15:39.264Z,3.50
2024-03-01T07:18:06.556Z,7.00
2024-03-01T07:20:33.757Z,4.30
2024-03-01T07:23:01.292Z,3.50
2024-03-01T07:25:28.341Z,4.90
2024-03-01T07:27:55.566Z,3.60
2024-03-01T07:30:23.362Z,7.10
2024-03-01T07:32:50.574Z,4.20
2024-03-01T07:35:20.563Z,5.40
2024-03-01T07:37:48.229Z,5.50
2024-03-01T07:40:16.034Z,3.20
2024-03-01T07:42:43.253Z,4.90
2024-03-01T07:45:12.046Z,5.50
2024-03-01T07:47:43.625Z,4.10
2024-03-01T07:50:16.688Z,7.00
2024-03-01T07:52:43.987Z,5.00
2024-03-01T07:55:13.172Z,3.50
2024-03-01T07:57:40.479Z,6.40
2024-03-01T08:00:08.198Z,3.90
2024-03-01T08:02:35.701Z,7.30
2024-03-01T08:05:03.306Z,5.30
2024-03-01T08:07:30.325Z,6.90
2024-03-01T08:09:57.425Z,3.10
2024-03-01T08:12:25.040Z,6.20
2024-03-01T08:14:53.493Z,5.60
2024-03-01T08:17:20.543Z,7.60
2024-03-01T08:19:49.496Z,3.80
2024-03-01T08:22:18.647Z,5.20
2024-03-01T08:24:50.386Z,5.40
2024-03-01T08:27:29.385Z,8.70
2024-03-01T08:29:58.333Z,7.00
2024-03-01T08:32:46.746Z,5.90
2024-03-01T08:35:17.491Z,5.60
2024-03-01T08:37:44.696Z,4.70
2024-03-01T08:40:33.867Z,3.10
2024-03-01T08:43:00.997Z,5.50
2024-03-01T08:45:46.760Z,3.60
2024-03-01T08:48:26.710Z,4.50
2024-03-01T08:50:54.059Z,3.50
2024-03-01T08:53:49.052Z,6.20
2024-03-01T08:56:22.055Z,4.40
2024-03-01T08:58:50.261Z,6.90
2024-03-01T09:01:45.758Z,5.40
2024-03-01T09:04:39.721Z,4.00
2024-03-01T09:07:12.987Z,4.60
2024-03-01T09:09:41.163Z,3.90
2024-03-01T09:12:19.041Z,4.50
2024-03-01T09:14:46.191Z,2.80
2024-03-01T09:17:15.147Z,6.40
2024-03-01T09:19:48.873Z,7.90
2024-03-01T09:22:17.776Z,3.40
2024-03-01T09:24:46.516Z,4.20
2024-03-01T09:27:33.385Z,4.70
2024-03-01T09:30:12.958Z,4.80
2024-03-01T09:32:40.201Z,5.60
2024-03-01T09:35:07.938Z,3.40
2024-03-01T09:37:36.145Z,3.50
2024-03-01T09:40:46.931Z,3.80
2024-03-01T09:43:51.151Z,5.90
2024-03-01T09:46:28.908Z,9.40
2024-03-01T09:49:25.879Z,6.50
2024-03-01T09:52:31.930Z,8.30
2024-03-01T09:55:41.030Z,5.90
2024-03-01T09:58:13.785Z,5.10
2024-03-01T10:00:51.808Z,5.80
2024-03-01T10:03:18.833Z,5.00
2024-03-01T10:06:09.537Z,6.50
2024-03-01T10:09:02.265Z,6.00
2024-03-01T10:12:17.044Z,6.50
2024-03-01T10:14:57.705Z,4.10
2024-03-01T10:18:04.028Z,6.60
2024-03-01T10:21:11.679Z,4.30
2024-03-01T10:23:48.118Z,7.20
2024-03-01T10:26:29.364Z,5.20
2024-03-01T10:29:23.933Z,3.90
2024-03-01T10:32:09.675Z,4.30
2024-03-01T10:35:05.259Z,8.70
2024-03-01T10:37:50.984Z,4.00
2024-03-01T10:40:20.685Z,5.30
2024-03-01T10:43:04.784Z,3.90
2024-03-01T10:45:44.625Z,7.10
2024-03-01T10:48:12.115Z,8.60
2024-03-01T10:50:48.020Z,6.60
2024-03-01T10:53:22.438Z,5.80
2024-03-01T10:56:04.580Z,6.20
2024-03-01T10:58:56.196Z,4.50
2024-03-01T11:01:42.178Z,4.00
2024-03-01T11:04:16.588Z,7.50
2024-03-01T11:07:06.652Z,5.70
2024-03-01T11:10:00.141Z,7.20
2024-03-01T11:12:46.906Z,4.40
2024-03-01T11:15:16.937Z,6.20
2024-03-01T11:17:50.333Z,5.00
2024-03-01T11:20:29.923Z,4.70
2024-03-01T11:23:40.280Z,5.20
2024-03-01T11:26:23.642Z,5.20
2024-03-01T11:28:59.210Z,8.60
2024-03-01T11:31:39.948Z,4.70
2024-03-01T11:34:18.210Z,5.40
2024-03-01T11:37:02.868Z,3.30
2024-03-01T11:39:39.102Z,10.10
2024-03-01T11:42:23.516Z,4.10
2024-03-01T11:45:12.770Z,7.30
2024-03-01T11:48:11.070Z,6.70
2024-03-01T11:51:06.540Z,6.00
2024-03-01T11:53:51.680Z,5.50
2024-03-01T11:56:39.950Z,5.00
2024-03-01T11:59:29.872Z,7.30
2024-03-01T12:02:22.809Z,6.20
2024-03-01T12:05:06.788Z,6.30
2024-03-01T12:07:59.536Z,3.30
2024-03-01T12:10:42.494Z,8.00
2024-03-01T12:13:18.218Z,7.30
2024-03-01T12:16:05.166Z,5.90
2024-03-01T12:18:41.735Z,9.90
2024-03-01T12:21:36.445Z,4.00
2024-03-01T12:24:20.274Z,6.00
2024-03-01T12:26:54.831Z,5.30
2024-03-01T12:29:50.243Z,5.60
2024-03-01T12:32:27.915Z,4.30
2024-03-01T12:35:16.465Z,3.40
2024-03-01T12:38:08.419Z,2.40
2024-03-01T12:41:02.727Z,4.90
2024-03-01T12:43:57.566Z,5.60
2024-03-01T12:47:01.489Z,4.30
2024-03-01T12:49:48.198Z,5.20
2024-03-01T12:52:30.469Z,5.60
2024-03-01T12:55:07.526Z,4.20
2024-03-01T12:58:07.151Z,3.30
2024-03-01T13:00:47.194Z,4.40
2024-03-01T13:03:17.096Z,3.20
2024-03-01T13:05:45.097Z,8.00
2024-03-01T13:08:28.115Z,4.10
2024-03-01T13:10:58.810Z,6.60
2024-03-01T13:13:31.013Z,4.90
2024-03-01T13:16:16.305Z,5.10
2024-03-01T13:18:43.442Z,5.40
2024-03-01T13:21:25.324Z,4.30
2024-03-01T13:24:12.735Z,4.30
2024-03-01T13:26:40.403Z,5.80
2024-03-01T13:29:19.629Z,3.40
2024-03-01T13:32:10.680Z,6.30
2024-03-01T13:34:47.559Z,2.60
2024-03-01T13:37:38.701Z,3.40
2024-03-01T13:40:16.430Z,5.80
2024-03-01T13:43:23.900Z,5.70
2024-03-01T13:46:07.705Z,6.80
2024-03-01T13:48:40.465Z,6.10
2024-03-01T13:51:08.962Z,6.20
2024-03-01T13:53:38.843Z,6.10
2024-03-01T13:56:06.778Z,7.30
2024-03-01T13:58:42.287Z,8.90
2024-03-01T14:01:10.400Z,5.60
2024-03-01T14:03:38.310Z,9.20
2024-03-01T14:06:07.345Z,10.30
2024-03-01T14:08:35.813Z,11.20
2024-03-01T14:11:03.062Z,10.80
2024-03-01T14:13:30.714Z,15.90
2024-03-01T14:16:09.646Z,11.90
2024-03-01T14:18:37.858Z,15.50
2024-03-01T14:21:06.882Z,13.50
2024-03-01T14:23:34.460Z,13.40
2024-03-01T14:26:02.956Z,13.40
2024-03-01T14:28:30.882Z,13.30
2024-03-01T14:30:59.924Z,13.50
2024-03-01T14:33:28.686Z,11.00
2024-03-01T14:36:10.470Z,13.60
2024-03-01T14:38:39.333Z,14.00
2024-03-01T14:41:09.015Z,15.20
2024-03-01T14:43:47.366Z,13.00
2024-03-01T14:46:39.797Z,14.30
2024-03-01T14:49:20.922Z,14.70
2024-03-01T14:51:48.063Z,12.20
2024-03-01T14:54:32.937Z,11.80
2024-03-01T14:57:00.275Z,13.30
2024-03-01T14:59:28.552Z,21.10
2024-03-01T15:01:56.281Z,40.60
2024-03-01T15:04:24.345Z,65.60
2024-03-01T15:06:53.287Z,83.20
2024-03-01T15:09:24.218Z,108.20
2024-03-01T15:11:57.241Z,118.20
2024-03-01T15:14:26.589Z,131.70
2024-03-01T15:16:54.929Z,142.20
2024-03-01T15:19:25.439Z,139.10
2024-03-01T15:21:54.002Z,159.50
2024-03-01T15:24:22.915Z,151.90
2024-03-01T15:26:53.997Z,152.80
2024-03-01T15:29:22.325Z,154.70
2024-03-01T15:31:51.647Z,153.00
2024-03-01T15:34:20.947Z,146.60
2024-03-01T15:36:50.520Z,154.60
2024-03-01T15:39:23.392Z,147.50
2024-03-01T15:41:50.612Z,134.90
2024-03-01T15:44:21.716Z,151.40
2024-03-01T15:46:51.515Z,145.60
2024-03-01T15:49:20.000Z,145.00
2024-03-01T15:51:49.556Z,141.40
2024-03-01T15:54:19.101Z,148.70
2024-03-01T15:56:49.229Z,141.90
2024-03-01T15:59:16.334Z,138.90
2024-03-01T16:01:45.763Z,136.00
2024-03-01T16:04:15.343Z,141.80
2024-03-01T16:06:49.021Z,131.80
2024-03-01T16:09:16.637Z,126.00
2024-03-01T16:11:44.143Z,119.90
2024-03-01T16:14:13.386Z,127.50
2024-03-01T16:16:40.766Z,122.80
2024-03-01T16:19:08.908Z,120.70
2024-03-01T16:21:37.100Z,124.80
2024-03-01T16:24:09.630Z,119.40
2024-03-01T16:26:37.036Z,122.50
2024-03-01T16:29:04.155Z,121.00
2024-03-01T16:31:31.395Z,117.70
2024-03-01T16:33:59.231Z,110.20
2024-03-01T16:36:26.313Z,118.10
2024-03-01T16:38:54.110Z,115.30
2024-03-01T16:41:41.177Z,109.30
2024-03-01T16:44:44.659Z,110.50
2024-03-01T16:47:29.954Z,107.40
2024-03-01T16:50:02.731Z,111.50
2024-03-01T16:52:35.196Z,102.00
2024-03-01T16:55:05.090Z,102.30
2024-03-01T16:57:36.430Z,101.80
2024-03-01T17:00:07.829Z,101.70
2024-03-01T17:02:47.024Z,100.50
2024-03-01T17:06:01.785Z,108.40
2024-03-01T17:08:44.592Z,97.70
2024-03-01T17:11:19.519Z,96.90
2024-03-01T17:13:54.958Z,92.80
2024-03-01T17:16:28.438Z,94.40
2024-03-01T17:19:05.779Z,98.10
2024-03-01T17:21:39.259Z,93.30
2024-03-01T17:24:12.587Z,89.50
2024-03-01T17:26:44.725Z,94.10
2024-03-01T17:29:20.100Z,89.90
2024-03-01T17:31:48.788Z,89.40
2024-03-01T17:34:19.345Z,90.50
2024-03-01T17:36:54.528Z,89.50
2024-03-01T17:39:23.035Z,88.50
2024-03-01T17:41:51.964Z,79.50
2024-03-01T17:44:25.736Z,87.70
2024-03-01T17:47:02.636Z,85.10
2024-03-01T17:49:32.735Z,84.30
2024-03-01T17:52:03.472Z,80.30
2024-03-01T17:54:33.075Z,83.40
2024-03-01T17:57:06.807Z,79.00
2024-03-01T17:59:43.176Z,77.00
2024-03-01T18:02:13.281Z,77.30
2024-03-01T18:04:43.931Z,78.30
2024-03-01T18:07:26.782Z,72.40
2024-03-01T18:09:58.130Z,72.90
2024-03-01T18:12:39.134Z,75.70
2024-03-01T18:17:55.552Z,63.90
2024-03-01T18:20:24.962Z,69.80
2024-03-01T18:22:56.095Z,68.70
2024-03-01T18:25:27.322Z,71.70
2024-03-01T18:27:58.883Z,67.20
2024-03-01T18:30:29.696Z,69.50
2024-03-01T18:33:04.220Z,66.50
2024-03-01T18:35:41.687Z,65.30
2024-03-01T18:38:16.389Z,66.90
2024-03-01T18:43:33.721Z,60.30
2024-03-01T18:46:06.234Z,65.40
2024-03-01T18:48:39.497Z,65.10
2024-03-01T18:51:09.630Z,62.70
2024-03-01T18:53:40.083Z,62.10
2024-03-01T18:56:25.830Z,63.90
2024-03-01T18:59:02.801Z,58.00
2024-03-01T19:01:33.220Z,60.70
2024-03-01T19:04:10.878Z,57.20
2024-03-01T19:06:42.252Z,56.20
2024-03-01T19:09:17.520Z,55.60
2024-03-01T19:11:48.302Z,57.40
2024-03-01T19:14:18.910Z,55.40
2024-03-01T19:16:59.658Z,53.10
2024-03-01T19:19:32.655Z,45.20
2024-03-01T19:22:03.342Z,46.00
2024-03-01T19:24:39.501Z,48.10
2024-03-01T19:27:09.557Z,47.20
2024-03-01T19:29:43.434Z,48.50
2024-03-01T19:32:11.747Z,46.10
2024-03-01T19:34:44.593Z,51.50
2024-03-01T19:37:15.725Z,48.10
2024-03-01T19:39:49.303Z,46.90
2024-03-01T19:42:22.411Z,46.40
2024-03-01T19:44:50.124Z,46.30
2024-03-01T19:47:19.958Z,48.30
2024-03-01T19:49:49.922Z,52.90
2024-03-01T19:52:26.327Z,46.30
2024-03-01T19:54:58.450Z,48.20
2024-03-01T19:57:31.000Z,43.10
2024-03-01T20:00:03.728Z,42.20
2024-03-01T20:02:41.593Z,46.40
2024-03-01T20:05:12.245Z,45.70
2024-03-01T20:07:46.000Z,48.10
2024-03-01T20:10:20.876Z,41.10
2024-03-01T20:12:49.512Z,41.60
2024-03-01T20:15:22.556Z,42.30
2024-03-01T20:20:35.515Z,41.30
2024-03-01T20:23:08.154Z,42.60
2024-03-01T20:25:37.511Z,40.80
2024-03-01T20:28:13.004Z,41.60
2024-03-01T20:30:40.500Z,41.70
2024-03-01T20:33:19.274Z,40.30
2024-03-01T20:35:53.690Z,41.50
2024-03-01T20:38:26.362Z,41.50
2024-03-01T20:41:01.442Z,40.70
2024-03-01T20:43:36.496Z,38.20
2024-03-01T20:46:14.462Z,37.10
2024-03-01T20:48:49.911Z,37.50
2024-03-01T20:51:20.878Z,38.80
2024-03-01T20:53:51.813Z,37.50
2024-03-01T20:56:22.536Z,35.60
2024-03-01T20:58:57.933Z,39.30
2024-03-01T21:01:32.569Z,36.10
2024-03-01T21:04:01.809Z,44.60
2024-03-01T21:06:32.022Z,35.40
2024-03-01T21:09:08.844Z,36.60
2024-03-01T21:11:45.611Z,35.30
2024-03-01T21:14:15.249Z,36.50
2024-03-01T21:16:50.113Z,34.80
2024-03-01T21:19:20.086Z,33.60
2024-03-01T21:24:27.300Z,33.00
2024-03-01T21:26:57.118Z,37.80
2024-03-01T21:29:28.249Z,34.70
2024-03-01T21:32:01.697Z,37.80
2024-03-01T21:34:34.589Z,32.50
2024-03-01T21:37:02.407Z,32.10
2024-03-01T21:39:36.500Z,32.90
2024-03-01T21:42:08.238Z,32.50
2024-03-01T21:44:38.488Z,30.30
2024-03-01T21:47:08.150Z,31.50
2024-03-01T21:49:35.609Z,33.70
2024-03-01T21:52:09.435Z,31.80
2024-03-01T21:54:40.581Z,29.10
2024-03-01T21:57:08.502Z,27.00
2024-03-01T21:59:35.469Z,30.00
2024-03-01T22:02:07.109Z,29.10
2024-03-01T22:04:34.669Z,23.10
2024-03-01T22:07:02.268Z,20.70
2024-03-01T22:09:30.651Z,25.10
2024-03-01T22:11:57.720Z,24.30
2024-03-01T22:14:26.497Z,21.30
2024-03-01T22:16:53.591Z,22.80
2024-03-01T22:19:20.746Z,24.20
2024-03-01T22:21:52.021Z,23.90
2024-03-01T22:24:23.178Z,23.20
2024-03-01T22:26:50.344Z,24.50
2024-03-01T22:29:18.862Z,25.80
2024-03-01T22:51:51.377Z,25.80
2024-03-01T22:54:28.068Z,24.70
2024-03-01T22:56:58.417Z,20.10
2024-03-01T22:59:50.796Z,20.40
2024-03-01T23:02:18.150Z,20.10
2024-03-01T23:04:46.331Z,19.60
2024-03-01T23:07:13.977Z,22.30
2024-03-01T23:09:44.318Z,18.20
2024-03-01T23:12:12.893Z,20.70
2024-03-01T23:14:49.453Z,20.90
2024-03-01T23:17:17.322Z,18.10
2024-03-01T23:19:45.803Z,19.30
2024-03-01T23:22:16.036Z,17.30
2024-03-01T23:24:43.783Z,18.70
2024-03-01T23:27:11.108Z,20.00
2024-03-01T23:29:38.296Z,17.80
2024-03-01T23:32:07.496Z,17.70
2024-03-01T23:34:35.642Z,16.80
2024-03-01T23:37:03.060Z,20.20
2024-03-01T23:39:31.037Z,16.50
2024-03-01T23:41:58.280Z,19.50
2024-03-01T23:44:25.327Z,19.60
2024-03-01T23:46:52.418Z,18.40
2024-03-01T23:49:19.725Z,16.50
2024-03-01T23:51:47.125Z,19.00
2024-03-01T23:54:15.688Z,19.40
2024-03-01T23:56:43.507Z,16.80
2024-03-01T23:59:10.634Z,19.20
